D3 — 9HA2459 — position and weather

sailwx.info

Track history (hours):
 
Tides and Currents Weather Stations Pressure Air Temp Water Temp Dewpoint Dewpoint Depression Visibility Wind Speed Wind Dir Waves Ship Positions

D3

Last reported at 2017-Mar-31 10:44 UTC. Time now 2017-Apr-27 11:10 UTC.
Position N 44°02' E 010°02'.
Warning: this ship's position is 27 days out of date.

Length 88 m; draft 3.3 m.

Type: Cargo ship. MMSI: 248663000.

Date/timePositionNaut miles runAvg speedWind from/ knotsBaromVisibWave heightAir tempDewpointWater temp
2017-Mar-31 10:44N 44°02' E 010°02'0 0.1
2017-Mar-31 10:30N 44°02' E 010°02'0 0.0
2017-Mar-31 10:00N 44°02' E 010°02'0 0.0
2017-Mar-31 09:30N 44°02' E 010°02'0 0.0
2017-Mar-31 09:00N 44°02' E 010°02'0 0.1
2017-Mar-31 08:30N 44°02' E 010°02'0 0.1
2017-Mar-31 08:00N 44°02' E 010°02'0 0.0
2017-Mar-31 07:30N 44°02' E 010°02'0 0.0
2017-Mar-31 07:00N 44°02' E 010°02'0 0.0
2017-Mar-31 06:30N 44°02' E 010°02'0 0.0
2017-Mar-31 05:59N 44°02' E 010°02'0 0.0
2017-Mar-31 05:29N 44°02' E 010°02'0 0.0
2017-Mar-31 04:59N 44°02' E 010°02'0 0.0
2017-Mar-31 04:31N 44°02' E 010°02'0 0.0
2017-Mar-31 03:33N 44°02' E 010°02'0 0.0
2017-Mar-31 02:33N 44°02' E 010°02'0 0.0
2017-Mar-31 01:33N 44°02' E 010°02'0 0.0
2017-Mar-31 00:33N 44°02' E 010°02'0 0.0
2017-Mar-30 23:33N 44°02' E 010°02'0 0.0
2017-Mar-30 22:33N 44°02' E 010°02'0 0.0
2017-Mar-30 21:33N 44°02' E 010°02'0 0.0
2017-Mar-30 20:33N 44°02' E 010°02'0 0.0
2017-Mar-30 19:33N 44°02' E 010°02'0 0.0
2017-Mar-30 18:33N 44°02' E 010°02'0 0.0
2017-Mar-30 17:33N 44°02' E 010°02'0 0.0
2017-Mar-30 16:33N 44°02' E 010°02'0 0.0
2017-Mar-30 15:33N 44°02' E 010°02'0 0.0
2017-Mar-30 14:33N 44°02' E 010°02'0 0.0
2017-Mar-30 13:33N 44°02' E 010°02'0 0.0
2017-Mar-30 12:33N 44°02' E 010°02'0 0.0
2017-Mar-30 11:33N 44°02' E 010°02'0 0.0
2017-Mar-30 10:33N 44°02' E 010°02'0 0.0
2017-Mar-30 09:33N 44°02' E 010°02'0 0.0
2017-Mar-30 08:33N 44°02' E 010°02'0 0.0
2017-Mar-30 07:33N 44°02' E 010°02'0 0.0
2017-Mar-30 06:33N 44°02' E 010°02'0 0.0
2017-Mar-30 05:33N 44°02' E 010°02'0 0.0
2017-Mar-30 04:33N 44°02' E 010°02'0 0.0
2017-Mar-30 03:33N 44°02' E 010°02'0 0.0
2017-Mar-30 02:33N 44°02' E 010°02'0 0.0
2017-Mar-30 01:33N 44°02' E 010°02'0 0.0
2017-Mar-30 00:33N 44°02' E 010°02'0 0.0
2017-Mar-29 23:33N 44°02' E 010°02'0 0.0
2017-Mar-29 22:33N 44°02' E 010°02'0 0.0
2017-Mar-29 21:33N 44°02' E 010°02'0 0.0
2017-Mar-29 20:33N 44°02' E 010°02'0 0.0
2017-Mar-29 19:33N 44°02' E 010°02'0 0.0
2017-Mar-29 18:33N 44°02' E 010°02'0 0.0
2017-Mar-29 17:33N 44°02' E 010°02'0 0.0
2017-Mar-29 16:33N 44°02' E 010°02'0 0.0
2017-Mar-29 15:33N 44°02' E 010°02'0 0.0
2017-Mar-29 14:33N 44°02' E 010°02'0 0.1
2017-Mar-29 13:33N 44°02' E 010°02'6 6.2
2017-Mar-29 12:34N 44°04' E 009°54'6 5.8
2017-Mar-29 11:33N 44°01' E 009°47'1010.4
2017-Mar-29 10:33N 44°06' E 009°34'1111.3
2017-Mar-29 09:33N 44°13' E 009°22'3 3.3
2017-Mar-29 08:33N 44°13' E 009°17'8 8.0
2017-Mar-29 07:33N 44°16' E 009°07'1010.1
2017-Mar-29 06:33N 44°22' E 008°57'2 2.1
2017-Mar-29 05:24N 44°25' E 008°55'0 0.0
2017-Mar-29 04:27N 44°25' E 008°55'0 0.0
2017-Mar-29 03:27N 44°25' E 008°55'0 0.0
2017-Mar-29 02:27N 44°25' E 008°55'0 0.0
2017-Mar-29 01:30N 44°25' E 008°55'0 0.0
2017-Mar-29 00:30N 44°25' E 008°55'0 0.0
2017-Mar-28 23:30N 44°25' E 008°55'0 0.0
2017-Mar-28 22:33N 44°25' E 008°55'0 0.0
2017-Mar-28 21:33N 44°25' E 008°55'0 0.0
2017-Mar-28 20:33N 44°25' E 008°55'0 0.0
2017-Mar-28 19:33N 44°25' E 008°55'0 0.0
2017-Mar-28 18:18N 44°25' E 008°55'0 0.0
2017-Mar-28 17:33N 44°25' E 008°55'0 0.0
2017-Mar-28 16:26N 44°25' E 008°55'0 0.0
2017-Mar-28 15:29N 44°25' E 008°55'0 0.0
2017-Mar-28 14:26N 44°25' E 008°55'0 0.0
2017-Mar-28 13:29N 44°25' E 008°55'0 0.0
2017-Mar-28 12:32N 44°25' E 008°55'0 0.0
2017-Mar-28 11:32N 44°25' E 008°55'0 0.0
2017-Mar-28 10:32N 44°25' E 008°55'0 0.0
2017-Mar-28 09:32N 44°25' E 008°55'0 0.0
2017-Mar-28 08:32N 44°25' E 008°55'0 0.0
2017-Mar-28 07:32N 44°25' E 008°55'0 0.0
2017-Mar-28 06:32N 44°25' E 008°55'0 0.0
2017-Mar-28 05:32N 44°25' E 008°55'0 0.0
2017-Mar-28 04:23N 44°25' E 008°55'0 0.0
2017-Mar-28 03:26N 44°25' E 008°55'0 0.0
2017-Mar-28 02:26N 44°25' E 008°55'0 0.0
2017-Mar-28 01:26N 44°25' E 008°55'0 0.0
2017-Mar-28 00:29N 44°25' E 008°55'0 0.0
2017-Mar-27 23:29N 44°25' E 008°55'0 0.0
2017-Mar-27 22:29N 44°25' E 008°55'0 0.0
2017-Mar-27 21:32N 44°25' E 008°55'0 0.0
2017-Mar-27 20:32N 44°25' E 008°55'0 0.0
2017-Mar-27 19:32N 44°25' E 008°55'0 0.0
2017-Mar-27 18:20N 44°25' E 008°55'0 0.0
2017-Mar-27 17:32N 44°25' E 008°55'0 0.0
2017-Mar-27 16:32N 44°25' E 008°55'0 0.0
2017-Mar-27 15:32N 44°25' E 008°55'0 0.0
2017-Mar-27 14:23N 44°25' E 008°55'0 0.0
2017-Mar-27 13:26N 44°25' E 008°55'0 0.0
2017-Mar-27 12:26N 44°25' E 008°55'0 0.0
2017-Mar-27 11:26N 44°25' E 008°55'  
Track history (hours):
 
Tides and Currents Weather Stations Pressure Air Temp Water Temp Dewpoint Dewpoint Depression Visibility Wind Speed Wind Dir Waves Ship Positions

D3

Last reported at 2017-Mar-31 10:44 UTC. Time now 2017-Apr-27 11:10 UTC.
Position N 44°02' E 010°02'.
Warning: this ship's position is 27 days out of date.

Length 88 m; draft 3.3 m.

Type: Cargo ship. MMSI: 248663000.

Date/timePositionNaut miles runAvg speedWind from/ knotsBaromVisibWave heightAir tempDewpointWater temp
2017-Mar-31 10:44N 44°02' E 010°02'0 0.1
2017-Mar-31 10:30N 44°02' E 010°02'0 0.0
2017-Mar-31 10:00N 44°02' E 010°02'0 0.0
2017-Mar-31 09:30N 44°02' E 010°02'0 0.0
2017-Mar-31 09:00N 44°02' E 010°02'0 0.1
2017-Mar-31 08:30N 44°02' E 010°02'0 0.1
2017-Mar-31 08:00N 44°02' E 010°02'0 0.0
2017-Mar-31 07:30N 44°02' E 010°02'0 0.0
2017-Mar-31 07:00N 44°02' E 010°02'0 0.0
2017-Mar-31 06:30N 44°02' E 010°02'0 0.0
2017-Mar-31 05:59N 44°02' E 010°02'0 0.0
2017-Mar-31 05:29N 44°02' E 010°02'0 0.0
2017-Mar-31 04:59N 44°02' E 010°02'0 0.0
2017-Mar-31 04:31N 44°02' E 010°02'0 0.0
2017-Mar-31 03:33N 44°02' E 010°02'0 0.0
2017-Mar-31 02:33N 44°02' E 010°02'0 0.0
2017-Mar-31 01:33N 44°02' E 010°02'0 0.0
2017-Mar-31 00:33N 44°02' E 010°02'0 0.0
2017-Mar-30 23:33N 44°02' E 010°02'0 0.0
2017-Mar-30 22:33N 44°02' E 010°02'0 0.0
2017-Mar-30 21:33N 44°02' E 010°02'0 0.0
2017-Mar-30 20:33N 44°02' E 010°02'0 0.0
2017-Mar-30 19:33N 44°02' E 010°02'0 0.0
2017-Mar-30 18:33N 44°02' E 010°02'0 0.0
2017-Mar-30 17:33N 44°02' E 010°02'0 0.0
2017-Mar-30 16:33N 44°02' E 010°02'0 0.0
2017-Mar-30 15:33N 44°02' E 010°02'0 0.0
2017-Mar-30 14:33N 44°02' E 010°02'0 0.0
2017-Mar-30 13:33N 44°02' E 010°02'0 0.0
2017-Mar-30 12:33N 44°02' E 010°02'0 0.0
2017-Mar-30 11:33N 44°02' E 010°02'0 0.0
2017-Mar-30 10:33N 44°02' E 010°02'0 0.0
2017-Mar-30 09:33N 44°02' E 010°02'0 0.0
2017-Mar-30 08:33N 44°02' E 010°02'0 0.0
2017-Mar-30 07:33N 44°02' E 010°02'0 0.0
2017-Mar-30 06:33N 44°02' E 010°02'0 0.0
2017-Mar-30 05:33N 44°02' E 010°02'0 0.0
2017-Mar-30 04:33N 44°02' E 010°02'0 0.0
2017-Mar-30 03:33N 44°02' E 010°02'0 0.0
2017-Mar-30 02:33N 44°02' E 010°02'0 0.0
2017-Mar-30 01:33N 44°02' E 010°02'0 0.0
2017-Mar-30 00:33N 44°02' E 010°02'0 0.0
2017-Mar-29 23:33N 44°02' E 010°02'0 0.0
2017-Mar-29 22:33N 44°02' E 010°02'0 0.0
2017-Mar-29 21:33N 44°02' E 010°02'0 0.0
2017-Mar-29 20:33N 44°02' E 010°02'0 0.0
2017-Mar-29 19:33N 44°02' E 010°02'0 0.0
2017-Mar-29 18:33N 44°02' E 010°02'0 0.0
2017-Mar-29 17:33N 44°02' E 010°02'0 0.0
2017-Mar-29 16:33N 44°02' E 010°02'0 0.0
2017-Mar-29 15:33N 44°02' E 010°02'0 0.0
2017-Mar-29 14:33N 44°02' E 010°02'0 0.1
2017-Mar-29 13:33N 44°02' E 010°02'6 6.2
2017-Mar-29 12:34N 44°04' E 009°54'6 5.8
2017-Mar-29 11:33N 44°01' E 009°47'1010.4
2017-Mar-29 10:33N 44°06' E 009°34'1111.3
2017-Mar-29 09:33N 44°13' E 009°22'3 3.3
2017-Mar-29 08:33N 44°13' E 009°17'8 8.0
2017-Mar-29 07:33N 44°16' E 009°07'1010.1
2017-Mar-29 06:33N 44°22' E 008°57'2 2.1
2017-Mar-29 05:24N 44°25' E 008°55'0 0.0
2017-Mar-29 04:27N 44°25' E 008°55'0 0.0
2017-Mar-29 03:27N 44°25' E 008°55'0 0.0
2017-Mar-29 02:27N 44°25' E 008°55'0 0.0
2017-Mar-29 01:30N 44°25' E 008°55'0 0.0
2017-Mar-29 00:30N 44°25' E 008°55'0 0.0
2017-Mar-28 23:30N 44°25' E 008°55'0 0.0
2017-Mar-28 22:33N 44°25' E 008°55'0 0.0
2017-Mar-28 21:33N 44°25' E 008°55'0 0.0
2017-Mar-28 20:33N 44°25' E 008°55'0 0.0
2017-Mar-28 19:33N 44°25' E 008°55'0 0.0
2017-Mar-28 18:18N 44°25' E 008°55'0 0.0
2017-Mar-28 17:33N 44°25' E 008°55'0 0.0
2017-Mar-28 16:26N 44°25' E 008°55'0 0.0
2017-Mar-28 15:29N 44°25' E 008°55'0 0.0
2017-Mar-28 14:26N 44°25' E 008°55'0 0.0
2017-Mar-28 13:29N 44°25' E 008°55'0 0.0
2017-Mar-28 12:32N 44°25' E 008°55'0 0.0
2017-Mar-28 11:32N 44°25' E 008°55'0 0.0
2017-Mar-28 10:32N 44°25' E 008°55'0 0.0
2017-Mar-28 09:32N 44°25' E 008°55'0 0.0
2017-Mar-28 08:32N 44°25' E 008°55'0 0.0
2017-Mar-28 07:32N 44°25' E 008°55'0 0.0
2017-Mar-28 06:32N 44°25' E 008°55'0 0.0
2017-Mar-28 05:32N 44°25' E 008°55'0 0.0
2017-Mar-28 04:23N 44°25' E 008°55'0 0.0
2017-Mar-28 03:26N 44°25' E 008°55'0 0.0
2017-Mar-28 02:26N 44°25' E 008°55'0 0.0
2017-Mar-28 01:26N 44°25' E 008°55'0 0.0
2017-Mar-28 00:29N 44°25' E 008°55'0 0.0
2017-Mar-27 23:29N 44°25' E 008°55'0 0.0
2017-Mar-27 22:29N 44°25' E 008°55'0 0.0
2017-Mar-27 21:32N 44°25' E 008°55'0 0.0
2017-Mar-27 20:32N 44°25' E 008°55'0 0.0
2017-Mar-27 19:32N 44°25' E 008°55'0 0.0
2017-Mar-27 18:20N 44°25' E 008°55'0 0.0
2017-Mar-27 17:32N 44°25' E 008°55'0 0.0
2017-Mar-27 16:32N 44°25' E 008°55'0 0.0
2017-Mar-27 15:32N 44°25' E 008°55'0 0.0
2017-Mar-27 14:23N 44°25' E 008°55'0 0.0
2017-Mar-27 13:26N 44°25' E 008°55'0 0.0
2017-Mar-27 12:26N 44°25' E 008°55'0 0.0
2017-Mar-27 11:26N 44°25' E 008°55'  

Dump ship's entire track history